sensor_id;sensor_type;location;lat;lon;timestamp;P1;durP1;ratioP1;P2;durP2;ratioP2
434;SDS011;204;48.942;9.256;2023-08-06T00:02:13;5.90;;;5.17;;
434;SDS011;204;48.942;9.256;2023-08-06T00:04:38;5.20;;;4.83;;
434;SDS011;204;48.942;9.256;2023-08-06T00:07:04;4.53;;;4.27;;
434;SDS011;204;48.942;9.256;2023-08-06T00:09:30;5.13;;;4.83;;
434;SDS011;204;48.942;9.256;2023-08-06T00:11:55;5.47;;;5.07;;
434;SDS011;204;48.942;9.256;2023-08-06T00:14:21;6.23;;;5.13;;
434;SDS011;204;48.942;9.256;2023-08-06T00:16:46;4.90;;;4.60;;
434;SDS011;204;48.942;9.256;2023-08-06T00:19:12;5.50;;;4.80;;
434;SDS011;204;48.942;9.256;2023-08-06T00:21:37;4.97;;;4.60;;
434;SDS011;204;48.942;9.256;2023-08-06T00:24:03;19.90;;;5.70;;
434;SDS011;204;48.942;9.256;2023-08-06T00:26:29;6.23;;;5.60;;
434;SDS011;204;48.942;9.256;2023-08-06T00:28:55;4.87;;;4.57;;
434;SDS011;204;48.942;9.256;2023-08-06T00:31:20;5.30;;;4.73;;
434;SDS011;204;48.942;9.256;2023-08-06T00:33:46;7.00;;;6.00;;
434;SDS011;204;48.942;9.256;2023-08-06T00:36:11;5.90;;;5.47;;
434;SDS011;204;48.942;9.256;2023-08-06T00:38:37;5.10;;;4.80;;
434;SDS011;204;48.942;9.256;2023-08-06T00:41:02;6.13;;;5.87;;
434;SDS011;204;48.942;9.256;2023-08-06T00:43:28;5.30;;;5.00;;
434;SDS011;204;48.942;9.256;2023-08-06T00:45:53;6.00;;;5.70;;
434;SDS011;204;48.942;9.256;2023-08-06T00:48:19;5.80;;;5.50;;
434;SDS011;204;48.942;9.256;2023-08-06T00:50:46;5.27;;;4.97;;
434;SDS011;204;48.942;9.256;2023-08-06T00:53:11;6.93;;;5.20;;
434;SDS011;204;48.942;9.256;2023-08-06T00:55:37;5.53;;;5.33;;
434;SDS011;204;48.942;9.256;2023-08-06T00:58:03;6.10;;;5.80;;
434;SDS011;204;48.942;9.256;2023-08-06T01:00:29;8.13;;;5.23;;
434;SDS011;204;48.942;9.256;2023-08-06T01:02:55;6.70;;;6.30;;
434;SDS011;204;48.942;9.256;2023-08-06T01:05:22;6.95;;;6.55;;
434;SDS011;204;48.942;9.256;2023-08-06T01:16:11;7.57;;;6.40;;
434;SDS011;204;48.942;9.256;2023-08-06T01:18:39;8.60;;;6.75;;
434;SDS011;204;48.942;9.256;2023-08-06T01:21:07;7.57;;;6.80;;
434;SDS011;204;48.942;9.256;2023-08-06T01:23:32;6.00;;;5.70;;
434;SDS011;204;48.942;9.256;2023-08-06T01:31:27;6.70;;;6.30;;
434;SDS011;204;48.942;9.256;2023-08-06T01:34:00;7.47;;;7.10;;
434;SDS011;204;48.942;9.256;2023-08-06T01:36:28;8.57;;;8.07;;
434;SDS011;204;48.942;9.256;2023-08-06T01:38:55;8.20;;;7.40;;
434;SDS011;204;48.942;9.256;2023-08-06T01:41:22;8.30;;;7.50;;
434;SDS011;204;48.942;9.256;2023-08-06T01:43:47;9.60;;;7.57;;
434;SDS011;204;48.942;9.256;2023-08-06T01:46:13;10.70;;;7.07;;
434;SDS011;204;48.942;9.256;2023-08-06T01:48:39;9.73;;;7.53;;
434;SDS011;204;48.942;9.256;2023-08-06T01:51:04;9.87;;;7.70;;
434;SDS011;204;48.942;9.256;2023-08-06T01:53:31;13.40;;;7.20;;
434;SDS011;204;48.942;9.256;2023-08-06T01:55:56;8.70;;;7.40;;
434;SDS011;204;48.942;9.256;2023-08-06T01:58:22;11.90;;;8.63;;
434;SDS011;204;48.942;9.256;2023-08-06T02:00:48;8.60;;;7.47;;
434;SDS011;204;48.942;9.256;2023-08-06T02:03:14;7.97;;;7.57;;
434;SDS011;204;48.942;9.256;2023-08-06T02:05:40;15.20;;;8.67;;
434;SDS011;204;48.942;9.256;2023-08-06T02:08:06;9.27;;;7.60;;
434;SDS011;204;48.942;9.256;2023-08-06T02:10:31;9.13;;;8.63;;
434;SDS011;204;48.942;9.256;2023-08-06T02:12:57;10.10;;;7.90;;
434;SDS011;204;48.942;9.256;2023-08-06T02:15:22;9.03;;;8.53;;
434;SDS011;204;48.942;9.256;2023-08-06T02:17:48;8.27;;;7.83;;
434;SDS011;204;48.942;9.256;2023-08-06T02:20:13;7.70;;;7.30;;
434;SDS011;204;48.942;9.256;2023-08-06T02:22:39;9.10;;;8.60;;
434;SDS011;204;48.942;9.256;2023-08-06T02:25:05;8.17;;;7.80;;
434;SDS011;204;48.942;9.256;2023-08-06T02:27:30;8.90;;;8.40;;
434;SDS011;204;48.942;9.256;2023-08-06T02:29:56;9.83;;;8.10;;
434;SDS011;204;48.942;9.256;2023-08-06T02:32:21;8.67;;;7.90;;
434;SDS011;204;48.942;9.256;2023-08-06T02:34:47;7.77;;;7.30;;
434;SDS011;204;48.942;9.256;2023-08-06T02:37:12;8.97;;;8.50;;
434;SDS011;204;48.942;9.256;2023-08-06T02:39:38;8.57;;;8.07;;
434;SDS011;204;48.942;9.256;2023-08-06T02:42:08;8.20;;;7.80;;
434;SDS011;204;48.942;9.256;2023-08-06T02:44:34;9.37;;;7.90;;
434;SDS011;204;48.942;9.256;2023-08-06T02:47:00;10.03;;;7.23;;
434;SDS011;204;48.942;9.256;2023-08-06T02:49:26;12.40;;;7.63;;
434;SDS011;204;48.942;9.256;2023-08-06T02:51:52;10.73;;;6.70;;
434;SDS011;204;48.942;9.256;2023-08-06T02:54:17;8.80;;;7.87;;
434;SDS011;204;48.942;9.256;2023-08-06T02:56:44;13.17;;;8.10;;
434;SDS011;204;48.942;9.256;2023-08-06T02:59:11;9.87;;;7.60;;
434;SDS011;204;48.942;9.256;2023-08-06T03:01:36;15.20;;;8.47;;
434;SDS011;204;48.942;9.256;2023-08-06T03:04:02;11.93;;;8.03;;
434;SDS011;204;48.942;9.256;2023-08-06T03:06:28;12.47;;;8.70;;
434;SDS011;204;48.942;9.256;2023-08-06T03:08:54;17.20;;;11.47;;
434;SDS011;204;48.942;9.256;2023-08-06T03:11:19;19.97;;;10.87;;
434;SDS011;204;48.942;9.256;2023-08-06T03:13:45;17.13;;;10.40;;
434;SDS011;204;48.942;9.256;2023-08-06T03:16:14;20.60;;;9.10;;
434;SDS011;204;48.942;9.256;2023-08-06T03:18:40;10.47;;;6.93;;
434;SDS011;204;48.942;9.256;2023-08-06T03:21:05;6.90;;;6.50;;
434;SDS011;204;48.942;9.256;2023-08-06T03:23:31;9.63;;;6.77;;
434;SDS011;204;48.942;9.256;2023-08-06T03:26:05;9.83;;;5.53;;
434;SDS011;204;48.942;9.256;2023-08-06T03:28:31;5.72;;;4.95;;
434;SDS011;204;48.942;9.256;2023-08-06T03:31:03;8.20;;;5.43;;
434;SDS011;204;48.942;9.256;2023-08-06T03:33:29;8.00;;;6.63;;
434;SDS011;204;48.942;9.256;2023-08-06T03:35:55;12.47;;;7.80;;
434;SDS011;204;48.942;9.256;2023-08-06T03:38:21;13.50;;;8.67;;
434;SDS011;204;48.942;9.256;2023-08-06T03:40:47;8.02;;;6.57;;
434;SDS011;204;48.942;9.256;2023-08-06T03:43:13;6.67;;;5.63;;
434;SDS011;204;48.942;9.256;2023-08-06T03:45:39;7.30;;;5.27;;
434;SDS011;204;48.942;9.256;2023-08-06T03:48:05;4.90;;;4.50;;
434;SDS011;204;48.942;9.256;2023-08-06T03:50:31;7.50;;;4.63;;
434;SDS011;204;48.942;9.256;2023-08-06T03:52:56;5.00;;;4.23;;
434;SDS011;204;48.942;9.256;2023-08-06T03:55:22;5.03;;;4.47;;
434;SDS011;204;48.942;9.256;2023-08-06T03:57:47;6.27;;;4.47;;
434;SDS011;204;48.942;9.256;2023-08-06T04:00:13;6.13;;;4.87;;
434;SDS011;204;48.942;9.256;2023-08-06T04:02:39;9.70;;;4.30;;
434;SDS011;204;48.942;9.256;2023-08-06T04:05:04;4.80;;;4.40;;
434;SDS011;204;48.942;9.256;2023-08-06T04:07:30;4.57;;;4.27;;
434;SDS011;204;48.942;9.256;2023-08-06T04:10:00;4.50;;;3.67;;
434;SDS011;204;48.942;9.256;2023-08-06T04:12:27;6.03;;;4.10;;
434;SDS011;204;48.942;9.256;2023-08-06T04:14:53;7.13;;;5.57;;
434;SDS011;204;48.942;9.256;2023-08-06T04:17:20;4.47;;;4.17;;
434;SDS011;204;48.942;9.256;2023-08-06T04:19:47;8.35;;;3.83;;
434;SDS011;204;48.942;9.256;2023-08-06T04:22:14;3.13;;;2.93;;
434;SDS011;204;48.942;9.256;2023-08-06T04:24:40;5.10;;;3.27;;
434;SDS011;204;48.942;9.256;2023-08-06T04:27:05;4.00;;;3.30;;
434;SDS011;204;48.942;9.256;2023-08-06T04:29:31;4.10;;;3.33;;
434;SDS011;204;48.942;9.256;2023-08-06T04:31:56;3.43;;;3.27;;
434;SDS011;204;48.942;9.256;2023-08-06T04:34:22;3.60;;;3.13;;
434;SDS011;204;48.942;9.256;2023-08-06T04:36:48;3.60;;;3.40;;
434;SDS011;204;48.942;9.256;2023-08-06T04:39:14;4.03;;;3.72;;
434;SDS011;204;48.942;9.256;2023-08-06T04:41:39;5.60;;;3.00;;
434;SDS011;204;48.942;9.256;2023-08-06T04:44:05;3.97;;;3.00;;
434;SDS011;204;48.942;9.256;2023-08-06T04:46:30;3.40;;;3.20;;
434;SDS011;204;48.942;9.256;2023-08-06T04:48:56;4.17;;;3.93;;
434;SDS011;204;48.942;9.256;2023-08-06T04:51:21;4.13;;;3.70;;
434;SDS011;204;48.942;9.256;2023-08-06T04:53:47;3.90;;;3.70;;
434;SDS011;204;48.942;9.256;2023-08-06T04:56:13;4.10;;;3.40;;
434;SDS011;204;48.942;9.256;2023-08-06T04:58:38;3.47;;;3.30;;
434;SDS011;204;48.942;9.256;2023-08-06T05:01:04;3.87;;;3.40;;
434;SDS011;204;48.942;9.256;2023-08-06T05:03:29;4.13;;;3.70;;
434;SDS011;204;48.942;9.256;2023-08-06T05:05:55;3.73;;;3.00;;
434;SDS011;204;48.942;9.256;2023-08-06T05:08:20;4.30;;;2.87;;
434;SDS011;204;48.942;9.256;2023-08-06T05:10:46;4.70;;;3.07;;
434;SDS011;204;48.942;9.256;2023-08-06T05:13:12;3.40;;;2.60;;
434;SDS011;204;48.942;9.256;2023-08-06T05:15:38;4.63;;;2.67;;
434;SDS011;204;48.942;9.256;2023-08-06T05:18:07;2.57;;;2.03;;
434;SDS011;204;48.942;9.256;2023-08-06T05:20:35;3.07;;;2.20;;
434;SDS011;204;48.942;9.256;2023-08-06T05:23:02;2.30;;;2.13;;
434;SDS011;204;48.942;9.256;2023-08-06T05:25:27;3.77;;;2.30;;
434;SDS011;204;48.942;9.256;2023-08-06T05:27:53;3.67;;;2.30;;
434;SDS011;204;48.942;9.256;2023-08-06T05:30:18;5.70;;;2.63;;
434;SDS011;204;48.942;9.256;2023-08-06T05:32:44;4.13;;;2.20;;
434;SDS011;204;48.942;9.256;2023-08-06T05:35:10;4.83;;;2.20;;
434;SDS011;204;48.942;9.256;2023-08-06T05:37:35;3.37;;;2.00;;
434;SDS011;204;48.942;9.256;2023-08-06T05:40:01;5.13;;;2.37;;
434;SDS011;204;48.942;9.256;2023-08-06T05:42:28;2.80;;;2.37;;
434;SDS011;204;48.942;9.256;2023-08-06T05:44:53;2.03;;;1.80;;
434;SDS011;204;48.942;9.256;2023-08-06T05:47:19;2.63;;;2.30;;
434;SDS011;204;48.942;9.256;2023-08-06T05:49:45;4.30;;;2.67;;
434;SDS011;204;48.942;9.256;2023-08-06T05:52:10;3.60;;;2.60;;
434;SDS011;204;48.942;9.256;2023-08-06T05:54:36;8.10;;;3.00;;
434;SDS011;204;48.942;9.256;2023-08-06T05:57:02;2.70;;;2.50;;
434;SDS011;204;48.942;9.256;2023-08-06T05:59:27;2.63;;;2.03;;
434;SDS011;204;48.942;9.256;2023-08-06T06:01:53;3.03;;;2.40;;
434;SDS011;204;48.942;9.256;2023-08-06T06:04:18;2.60;;;2.50;;
434;SDS011;204;48.942;9.256;2023-08-06T06:06:44;6.13;;;2.80;;
434;SDS011;204;48.942;9.256;2023-08-06T06:09:10;5.83;;;2.33;;
434;SDS011;204;48.942;9.256;2023-08-06T06:11:35;2.60;;;2.40;;
434;SDS011;204;48.942;9.256;2023-08-06T06:14:01;6.47;;;2.70;;
434;SDS011;204;48.942;9.256;2023-08-06T06:16:26;4.00;;;2.60;;
434;SDS011;204;48.942;9.256;2023-08-06T06:18:52;3.13;;;2.50;;
434;SDS011;204;48.942;9.256;2023-08-06T06:21:19;5.13;;;2.63;;
434;SDS011;204;48.942;9.256;2023-08-06T06:23:45;2.90;;;2.50;;
434;SDS011;204;48.942;9.256;2023-08-06T06:26:10;4.37;;;2.93;;
434;SDS011;204;48.942;9.256;2023-08-06T06:28:37;2.63;;;2.43;;
434;SDS011;204;48.942;9.256;2023-08-06T06:31:02;5.77;;;3.43;;
434;SDS011;204;48.942;9.256;2023-08-06T06:33:28;2.57;;;2.37;;
434;SDS011;204;48.942;9.256;2023-08-06T06:35:54;3.60;;;2.50;;
434;SDS011;204;48.942;9.256;2023-08-06T06:38:19;3.80;;;1.87;;
434;SDS011;204;48.942;9.256;2023-08-06T06:40:54;1.90;;;1.80;;
434;SDS011;204;48.942;9.256;2023-08-06T06:43:23;1.57;;;1.40;;
434;SDS011;204;48.942;9.256;2023-08-06T06:45:56;1.33;;;1.10;;
434;SDS011;204;48.942;9.256;2023-08-06T06:48:28;2.60;;;1.30;;
434;SDS011;204;48.942;9.256;2023-08-06T06:50:54;1.93;;;1.30;;
434;SDS011;204;48.942;9.256;2023-08-06T06:53:20;1.63;;;1.00;;
434;SDS011;204;48.942;9.256;2023-08-06T06:55:52;1.60;;;1.13;;
434;SDS011;204;48.942;9.256;2023-08-06T06:58:35;1.10;;;1.03;;
434;SDS011;204;48.942;9.256;2023-08-06T07:01:03;1.37;;;0.83;;
434;SDS011;204;48.942;9.256;2023-08-06T07:03:29;0.70;;;0.63;;
434;SDS011;204;48.942;9.256;2023-08-06T07:05:58;0.60;;;0.50;;
434;SDS011;204;48.942;9.256;2023-08-06T07:08:24;1.63;;;0.60;;
434;SDS011;204;48.942;9.256;2023-08-06T07:10:50;1.67;;;1.07;;
434;SDS011;204;48.942;9.256;2023-08-06T07:13:15;3.00;;;0.60;;
434;SDS011;204;48.942;9.256;2023-08-06T07:15:41;1.37;;;0.70;;
434;SDS011;204;48.942;9.256;2023-08-06T07:18:07;4.63;;;1.07;;
434;SDS011;204;48.942;9.256;2023-08-06T07:20:33;1.27;;;0.70;;
434;SDS011;204;48.942;9.256;2023-08-06T07:22:59;1.47;;;1.07;;
434;SDS011;204;48.942;9.256;2023-08-06T07:25:25;0.80;;;0.60;;
434;SDS011;204;48.942;9.256;2023-08-06T07:27:51;1.10;;;0.60;;
434;SDS011;204;48.942;9.256;2023-08-06T07:30:16;1.10;;;0.50;;
434;SDS011;204;48.942;9.256;2023-08-06T07:32:42;2.43;;;0.97;;
434;SDS011;204;48.942;9.256;2023-08-06T07:35:08;2.13;;;0.77;;
434;SDS011;204;48.942;9.256;2023-08-06T07:37:37;2.07;;;0.60;;
434;SDS011;204;48.942;9.256;2023-08-06T07:40:03;0.47;;;0.40;;
434;SDS011;204;48.942;9.256;2023-08-06T07:42:30;0.80;;;0.67;;
434;SDS011;204;48.942;9.256;2023-08-06T07:44:56;0.70;;;0.40;;
434;SDS011;204;48.942;9.256;2023-08-06T07:47:23;1.03;;;0.40;;
434;SDS011;204;48.942;9.256;2023-08-06T07:49:49;0.80;;;0.70;;
434;SDS011;204;48.942;9.256;2023-08-06T07:52:14;0.90;;;0.53;;
434;SDS011;204;48.942;9.256;2023-08-06T07:54:40;5.10;;;1.70;;
434;SDS011;204;48.942;9.256;2023-08-06T07:57:05;4.10;;;1.83;;
434;SDS011;204;48.942;9.256;2023-08-06T07:59:31;1.80;;;0.50;;
434;SDS011;204;48.942;9.256;2023-08-06T08:01:57;0.50;;;0.30;;
434;SDS011;204;48.942;9.256;2023-08-06T08:04:23;0.40;;;0.40;;
434;SDS011;204;48.942;9.256;2023-08-06T08:06:49;0.77;;;0.40;;
434;SDS011;204;48.942;9.256;2023-08-06T08:09:15;0.80;;;0.40;;
434;SDS011;204;48.942;9.256;2023-08-06T08:11:41;0.50;;;0.40;;
434;SDS011;204;48.942;9.256;2023-08-06T08:14:07;3.10;;;2.90;;
434;SDS011;204;48.942;9.256;2023-08-06T08:16:33;1.10;;;1.00;;
434;SDS011;204;48.942;9.256;2023-08-06T08:18:58;1.83;;;0.70;;
434;SDS011;204;48.942;9.256;2023-08-06T08:21:24;0.40;;;0.30;;
434;SDS011;204;48.942;9.256;2023-08-06T08:23:50;0.40;;;0.33;;
434;SDS011;204;48.942;9.256;2023-08-06T08:26:16;0.40;;;0.40;;
434;SDS011;204;48.942;9.256;2023-08-06T08:28:42;0.80;;;0.50;;
434;SDS011;204;48.942;9.256;2023-08-06T08:31:08;0.40;;;0.37;;
434;SDS011;204;48.942;9.256;2023-08-06T08:33:34;0.50;;;0.37;;
434;SDS011;204;48.942;9.256;2023-08-06T08:36:00;0.70;;;0.37;;
434;SDS011;204;48.942;9.256;2023-08-06T08:38:26;0.60;;;0.43;;
434;SDS011;204;48.942;9.256;2023-08-06T08:40:52;0.67;;;0.40;;
434;SDS011;204;48.942;9.256;2023-08-06T08:43:22;0.53;;;0.50;;
434;SDS011;204;48.942;9.256;2023-08-06T08:45:51;0.40;;;0.30;;
434;SDS011;204;48.942;9.256;2023-08-06T08:48:20;0.90;;;0.40;;
434;SDS011;204;48.942;9.256;2023-08-06T08:50:48;1.70;;;0.43;;
434;SDS011;204;48.942;9.256;2023-08-06T08:53:14;0.60;;;0.40;;
434;SDS011;204;48.942;9.256;2023-08-06T08:55:41;0.60;;;0.60;;
434;SDS011;204;48.942;9.256;2023-08-06T08:58:09;1.03;;;0.40;;
434;SDS011;204;48.942;9.256;2023-08-06T09:00:35;0.60;;;0.30;;
434;SDS011;204;48.942;9.256;2023-08-06T09:03:01;0.60;;;0.30;;
434;SDS011;204;48.942;9.256;2023-08-06T09:05:29;0.50;;;0.33;;
434;SDS011;204;48.942;9.256;2023-08-06T09:07:56;3.03;;;0.50;;
434;SDS011;204;48.942;9.256;2023-08-06T09:10:27;0.50;;;0.50;;
434;SDS011;204;48.942;9.256;2023-08-06T09:12:53;1.00;;;0.50;;
434;SDS011;204;48.942;9.256;2023-08-06T09:15:20;0.97;;;0.40;;
434;SDS011;204;48.942;9.256;2023-08-06T09:17:49;0.50;;;0.33;;
434;SDS011;204;48.942;9.256;2023-08-06T09:20:15;1.43;;;0.40;;
434;SDS011;204;48.942;9.256;2023-08-06T09:22:41;0.50;;;0.37;;
434;SDS011;204;48.942;9.256;2023-08-06T09:25:07;0.50;;;0.40;;
434;SDS011;204;48.942;9.256;2023-08-06T09:27:36;0.50;;;0.40;;
434;SDS011;204;48.942;9.256;2023-08-06T09:30:03;0.40;;;0.30;;
434;SDS011;204;48.942;9.256;2023-08-06T09:32:45;0.60;;;0.40;;
434;SDS011;204;48.942;9.256;2023-08-06T09:35:18;0.40;;;0.40;;
434;SDS011;204;48.942;9.256;2023-08-06T09:37:44;0.60;;;0.30;;
434;SDS011;204;48.942;9.256;2023-08-06T09:40:29;0.40;;;0.30;;
434;SDS011;204;48.942;9.256;2023-08-06T09:42:56;1.43;;;0.33;;
434;SDS011;204;48.942;9.256;2023-08-06T09:45:22;0.97;;;0.50;;
434;SDS011;204;48.942;9.256;2023-08-06T09:47:56;0.30;;;0.30;;
434;SDS011;204;48.942;9.256;2023-08-06T09:50:22;0.40;;;0.30;;
434;SDS011;204;48.942;9.256;2023-08-06T09:52:53;0.40;;;0.30;;
434;SDS011;204;48.942;9.256;2023-08-06T09:55:19;0.30;;;0.30;;
434;SDS011;204;48.942;9.256;2023-08-06T09:57:46;1.10;;;0.40;;
434;SDS011;204;48.942;9.256;2023-08-06T10:00:12;0.50;;;0.30;;
434;SDS011;204;48.942;9.256;2023-08-06T10:02:39;0.40;;;0.30;;
434;SDS011;204;48.942;9.256;2023-08-06T10:05:05;0.83;;;0.30;;
434;SDS011;204;48.942;9.256;2023-08-06T10:07:32;0.40;;;0.30;;
434;SDS011;204;48.942;9.256;2023-08-06T10:09:59;0.53;;;0.40;;
434;SDS011;204;48.942;9.256;2023-08-06T10:12:25;0.40;;;0.40;;
434;SDS011;204;48.942;9.256;2023-08-06T10:14:54;0.60;;;0.60;;
434;SDS011;204;48.942;9.256;2023-08-06T10:17:22;3.03;;;0.50;;
434;SDS011;204;48.942;9.256;2023-08-06T10:19:49;2.90;;;2.70;;
434;SDS011;204;48.942;9.256;2023-08-06T10:22:16;0.43;;;0.30;;
434;SDS011;204;48.942;9.256;2023-08-06T10:24:52;0.50;;;0.30;;
434;SDS011;204;48.942;9.256;2023-08-06T10:27:29;0.40;;;0.30;;
434;SDS011;204;48.942;9.256;2023-08-06T10:32:53;0.40;;;0.40;;
434;SDS011;204;48.942;9.256;2023-08-06T10:37:57;0.50;;;0.40;;
434;SDS011;204;48.942;9.256;2023-08-06T10:40:23;2.10;;;0.40;;
434;SDS011;204;48.942;9.256;2023-08-06T10:42:50;0.40;;;0.30;;
434;SDS011;204;48.942;9.256;2023-08-06T10:45:17;1.13;;;0.40;;
434;SDS011;204;48.942;9.256;2023-08-06T10:47:43;0.87;;;0.30;;
434;SDS011;204;48.942;9.256;2023-08-06T10:50:11;0.60;;;0.30;;
434;SDS011;204;48.942;9.256;2023-08-06T10:52:43;0.40;;;0.30;;
434;SDS011;204;48.942;9.256;2023-08-06T10:55:09;0.70;;;0.30;;
434;SDS011;204;48.942;9.256;2023-08-06T10:57:35;0.60;;;0.40;;
434;SDS011;204;48.942;9.256;2023-08-06T11:00:01;0.40;;;0.30;;
434;SDS011;204;48.942;9.256;2023-08-06T11:02:29;0.40;;;0.30;;
434;SDS011;204;48.942;9.256;2023-08-06T11:05:04;2.17;;;0.50;;
434;SDS011;204;48.942;9.256;2023-08-06T11:07:33;0.40;;;0.30;;
434;SDS011;204;48.942;9.256;2023-08-06T11:10:03;0.50;;;0.43;;
434;SDS011;204;48.942;9.256;2023-08-06T11:12:30;0.40;;;0.40;;
434;SDS011;204;48.942;9.256;2023-08-06T11:14:56;0.70;;;0.50;;
434;SDS011;204;48.942;9.256;2023-08-06T11:17:22;0.50;;;0.50;;
434;SDS011;204;48.942;9.256;2023-08-06T11:19:48;1.00;;;0.57;;
434;SDS011;204;48.942;9.256;2023-08-06T11:22:16;0.50;;;0.40;;
434;SDS011;204;48.942;9.256;2023-08-06T11:24:42;1.53;;;0.70;;
434;SDS011;204;48.942;9.256;2023-08-06T11:27:15;1.27;;;0.60;;
434;SDS011;204;48.942;9.256;2023-08-06T11:29:41;1.80;;;1.53;;
434;SDS011;204;48.942;9.256;2023-08-06T11:32:10;1.50;;;1.40;;
434;SDS011;204;48.942;9.256;2023-08-06T11:34:37;1.47;;;1.37;;
434;SDS011;204;48.942;9.256;2023-08-06T11:37:04;1.13;;;1.03;;
434;SDS011;204;48.942;9.256;2023-08-06T11:39:34;1.10;;;1.10;;
434;SDS011;204;48.942;9.256;2023-08-06T11:42:02;1.00;;;0.83;;
434;SDS011;204;48.942;9.256;2023-08-06T11:44:32;1.37;;;1.00;;
434;SDS011;204;48.942;9.256;2023-08-06T11:47:00;2.47;;;1.87;;
434;SDS011;204;48.942;9.256;2023-08-06T11:49:37;1.60;;;1.50;;
434;SDS011;204;48.942;9.256;2023-08-06T11:52:10;1.70;;;1.17;;
434;SDS011;204;48.942;9.256;2023-08-06T11:54:38;0.90;;;0.90;;
434;SDS011;204;48.942;9.256;2023-08-06T11:57:07;1.30;;;1.10;;
434;SDS011;204;48.942;9.256;2023-08-06T11:59:33;1.10;;;0.60;;
434;SDS011;204;48.942;9.256;2023-08-06T12:02:00;1.10;;;1.00;;
434;SDS011;204;48.942;9.256;2023-08-06T12:04:30;1.90;;;1.30;;
434;SDS011;204;48.942;9.256;2023-08-06T12:07:06;1.40;;;1.20;;
434;SDS011;204;48.942;9.256;2023-08-06T12:09:33;1.37;;;1.10;;
434;SDS011;204;48.942;9.256;2023-08-06T12:11:59;1.80;;;1.23;;
434;SDS011;204;48.942;9.256;2023-08-06T12:14:24;1.30;;;1.20;;
434;SDS011;204;48.942;9.256;2023-08-06T12:16:50;1.70;;;1.37;;
434;SDS011;204;48.942;9.256;2023-08-06T12:19:15;2.13;;;2.00;;
434;SDS011;204;48.942;9.256;2023-08-06T12:21:41;3.13;;;1.70;;
434;SDS011;204;48.942;9.256;2023-08-06T12:24:06;2.40;;;1.53;;
434;SDS011;204;48.942;9.256;2023-08-06T12:26:32;2.30;;;1.67;;
434;SDS011;204;48.942;9.256;2023-08-06T12:28:58;6.53;;;2.03;;
434;SDS011;204;48.942;9.256;2023-08-06T12:31:23;2.33;;;1.70;;
434;SDS011;204;48.942;9.256;2023-08-06T12:33:49;1.97;;;1.73;;
434;SDS011;204;48.942;9.256;2023-08-06T12:36:14;4.83;;;1.70;;
434;SDS011;204;48.942;9.256;2023-08-06T12:38:40;4.90;;;2.20;;
434;SDS011;204;48.942;9.256;2023-08-06T12:41:05;3.10;;;2.13;;
434;SDS011;204;48.942;9.256;2023-08-06T12:43:31;2.43;;;2.00;;
434;SDS011;204;48.942;9.256;2023-08-06T12:45:57;5.20;;;3.00;;
434;SDS011;204;48.942;9.256;2023-08-06T12:48:22;2.97;;;2.00;;
434;SDS011;204;48.942;9.256;2023-08-06T12:50:48;3.20;;;2.20;;
434;SDS011;204;48.942;9.256;2023-08-06T12:53:14;1.50;;;1.40;;
434;SDS011;204;48.942;9.256;2023-08-06T12:55:40;2.13;;;1.60;;
434;SDS011;204;48.942;9.256;2023-08-06T12:58:06;2.93;;;2.40;;
434;SDS011;204;48.942;9.256;2023-08-06T13:00:31;4.67;;;2.03;;
434;SDS011;204;48.942;9.256;2023-08-06T13:02:57;8.73;;;7.90;;
434;SDS011;204;48.942;9.256;2023-08-06T13:05:23;3.00;;;2.80;;
434;SDS011;204;48.942;9.256;2023-08-06T13:07:48;1.63;;;1.27;;
434;SDS011;204;48.942;9.256;2023-08-06T13:10:14;2.90;;;1.97;;
434;SDS011;204;48.942;9.256;2023-08-06T13:12:39;2.13;;;1.43;;
434;SDS011;204;48.942;9.256;2023-08-06T13:15:05;10.97;;;1.93;;
434;SDS011;204;48.942;9.256;2023-08-06T13:17:31;3.73;;;1.30;;
434;SDS011;204;48.942;9.256;2023-08-06T13:19:57;1.97;;;1.20;;
434;SDS011;204;48.942;9.256;2023-08-06T13:22:22;1.23;;;1.20;;
434;SDS011;204;48.942;9.256;2023-08-06T13:24:48;2.47;;;1.90;;
434;SDS011;204;48.942;9.256;2023-08-06T13:27:13;2.47;;;1.37;;
434;SDS011;204;48.942;9.256;2023-08-06T13:29:39;2.20;;;1.87;;
434;SDS011;204;48.942;9.256;2023-08-06T13:32:05;1.83;;;1.23;;
434;SDS011;204;48.942;9.256;2023-08-06T13:34:30;1.47;;;1.00;;
434;SDS011;204;48.942;9.256;2023-08-06T13:36:56;1.30;;;1.23;;
434;SDS011;204;48.942;9.256;2023-08-06T13:39:21;2.00;;;1.27;;
434;SDS011;204;48.942;9.256;2023-08-06T13:41:47;0.93;;;0.93;;
434;SDS011;204;48.942;9.256;2023-08-06T13:44:13;2.03;;;1.00;;
434;SDS011;204;48.942;9.256;2023-08-06T13:46:40;4.03;;;1.00;;
434;SDS011;204;48.942;9.256;2023-08-06T13:49:06;1.00;;;0.90;;
434;SDS011;204;48.942;9.256;2023-08-06T13:51:31;2.10;;;1.10;;
434;SDS011;204;48.942;9.256;2023-08-06T13:53:59;0.87;;;0.70;;
434;SDS011;204;48.942;9.256;2023-08-06T13:56:24;0.90;;;0.90;;
434;SDS011;204;48.942;9.256;2023-08-06T13:58:50;1.37;;;0.70;;
434;SDS011;204;48.942;9.256;2023-08-06T14:01:16;0.80;;;0.80;;
434;SDS011;204;48.942;9.256;2023-08-06T14:03:43;1.00;;;0.90;;
434;SDS011;204;48.942;9.256;2023-08-06T14:06:08;1.40;;;0.90;;
434;SDS011;204;48.942;9.256;2023-08-06T14:08:34;0.93;;;0.70;;
434;SDS011;204;48.942;9.256;2023-08-06T14:11:00;1.03;;;0.77;;
434;SDS011;204;48.942;9.256;2023-08-06T14:13:25;1.07;;;0.73;;
434;SDS011;204;48.942;9.256;2023-08-06T14:15:51;0.70;;;0.70;;
434;SDS011;204;48.942;9.256;2023-08-06T14:18:16;0.77;;;0.63;;
434;SDS011;204;48.942;9.256;2023-08-06T14:20:42;0.70;;;0.70;;
434;SDS011;204;48.942;9.256;2023-08-06T14:23:08;1.43;;;0.73;;
434;SDS011;204;48.942;9.256;2023-08-06T14:25:34;2.20;;;0.63;;
434;SDS011;204;48.942;9.256;2023-08-06T14:28:00;1.20;;;1.07;;
434;SDS011;204;48.942;9.256;2023-08-06T14:30:26;2.57;;;0.73;;
434;SDS011;204;48.942;9.256;2023-08-06T14:32:51;3.67;;;1.20;;
434;SDS011;204;48.942;9.256;2023-08-06T14:35:17;1.20;;;1.10;;
434;SDS011;204;48.942;9.256;2023-08-06T14:37:42;1.13;;;0.70;;
434;SDS011;204;48.942;9.256;2023-08-06T14:40:09;1.40;;;0.80;;
434;SDS011;204;48.942;9.256;2023-08-06T14:42:35;1.83;;;1.00;;
434;SDS011;204;48.942;9.256;2023-08-06T14:45:01;1.60;;;1.00;;
434;SDS011;204;48.942;9.256;2023-08-06T14:47:27;2.53;;;0.93;;
434;SDS011;204;48.942;9.256;2023-08-06T14:49:53;1.07;;;1.07;;
434;SDS011;204;48.942;9.256;2023-08-06T14:52:18;2.80;;;1.00;;
434;SDS011;204;48.942;9.256;2023-08-06T14:54:44;2.57;;;1.40;;
434;SDS011;204;48.942;9.256;2023-08-06T14:57:09;1.37;;;0.80;;
434;SDS011;204;48.942;9.256;2023-08-06T14:59:35;3.60;;;1.20;;
434;SDS011;204;48.942;9.256;2023-08-06T15:02:01;2.40;;;1.20;;
434;SDS011;204;48.942;9.256;2023-08-06T15:04:27;1.10;;;1.00;;
434;SDS011;204;48.942;9.256;2023-08-06T15:06:53;2.33;;;1.07;;
434;SDS011;204;48.942;9.256;2023-08-06T15:09:19;1.00;;;0.93;;
434;SDS011;204;48.942;9.256;2023-08-06T15:11:47;2.10;;;1.47;;
434;SDS011;204;48.942;9.256;2023-08-06T15:14:13;0.93;;;0.83;;
434;SDS011;204;48.942;9.256;2023-08-06T15:16:39;1.40;;;1.30;;
434;SDS011;204;48.942;9.256;2023-08-06T15:19:05;1.73;;;1.63;;
434;SDS011;204;48.942;9.256;2023-08-06T15:21:31;2.97;;;1.50;;
434;SDS011;204;48.942;9.256;2023-08-06T15:23:57;1.53;;;1.30;;
434;SDS011;204;48.942;9.256;2023-08-06T15:26:22;1.00;;;0.97;;
434;SDS011;204;48.942;9.256;2023-08-06T15:28:48;3.40;;;1.30;;
434;SDS011;204;48.942;9.256;2023-08-06T15:31:13;2.20;;;0.93;;
434;SDS011;204;48.942;9.256;2023-08-06T15:33:39;3.50;;;1.30;;
434;SDS011;204;48.942;9.256;2023-08-06T15:36:05;1.63;;;1.53;;
434;SDS011;204;48.942;9.256;2023-08-06T15:38:30;1.63;;;1.20;;
434;SDS011;204;48.942;9.256;2023-08-06T15:40:56;1.73;;;1.40;;
434;SDS011;204;48.942;9.256;2023-08-06T15:43:22;2.80;;;2.60;;
434;SDS011;204;48.942;9.256;2023-08-06T15:45:47;1.53;;;1.47;;
434;SDS011;204;48.942;9.256;2023-08-06T15:48:13;1.60;;;1.33;;
434;SDS011;204;48.942;9.256;2023-08-06T15:50:38;2.20;;;1.30;;
434;SDS011;204;48.942;9.256;2023-08-06T15:53:04;1.00;;;0.90;;
434;SDS011;204;48.942;9.256;2023-08-06T15:55:30;2.60;;;1.03;;
434;SDS011;204;48.942;9.256;2023-08-06T15:57:57;1.93;;;1.13;;
434;SDS011;204;48.942;9.256;2023-08-06T16:00:23;2.00;;;1.70;;